Time,TemperatureF,DewpointF,PressureIn,WindDirection,WindDirectionDegrees,WindSpeedMPH,WindSpeedGustMPH,Humidity,HourlyPrecipIn,Conditions,Clouds,dailyrainin,SoftwareType,DateUTC
2013-05-07 00:15:00,55.4,33.0,30.05,West,269,0.0,-999.0,43,-99.99,,,0.00,weatherlink.com 1.10,2013-05-07 07:15:00,
2013-05-07 00:23:00,55.0,33.0,30.05,SW,215,0.0,-999.0,43,-99.99,,,0.00,weatherlink.com 1.10,2013-05-07 07:23:00,
2013-05-07 00:38:00,54.8,32.0,30.05,WSW,249,0.0,-999.0,43,-99.99,,,0.00,weatherlink.com 1.10,2013-05-07 07:38:00,
2013-05-07 00:53:00,54.7,32.0,30.05,SE,140,0.0,-999.0,43,-99.99,,,0.00,weatherlink.com 1.10,2013-05-07 07:53:00,
2013-05-07 01:15:00,54.7,32.0,30.04,SW,218,0.0,-999.0,42,-99.99,,,0.00,weatherlink.com 1.10,2013-05-07 08:15:00,
2013-05-07 01:23:00,54.5,32.0,30.04,SW,217,1.0,-999.0,42,-99.99,,,0.00,weatherlink.com 1.10,2013-05-07 08:23:00,
2013-05-07 01:38:00,54.1,32.0,30.03,South,183,2.0,-999.0,43,-99.99,,,0.00,weatherlink.com 1.10,2013-05-07 08:38:00,
2013-05-07 01:54:00,53.8,32.0,30.03,SW,233,0.0,-999.0,44,-99.99,,,0.00,weatherlink.com 1.10,2013-05-07 08:54:00,
2013-05-07 02:15:00,53.3,33.0,30.02,SW,217,0.0,-999.0,46,-99.99,,,0.00,weatherlink.com 1.10,2013-05-07 09:15:00,
2013-05-07 02:23:00,53.1,34.0,30.02,SSW,199,0.0,-999.0,48,-99.99,,,0.00,weatherlink.com 1.10,2013-05-07 09:23:00,
2013-05-07 02:40:00,52.9,33.0,30.02,South,180,3.0,-999.0,47,-99.99,,,0.00,weatherlink.com 1.10,2013-05-07 09:40:00,
2013-05-07 02:54:00,52.8,33.0,30.02,South,190,0.0,-999.0,47,-99.99,,,0.00,weatherlink.com 1.10,2013-05-07 09:54:00,
2013-05-07 03:16:00,52.6,33.0,30.01,SW,230,1.0,-999.0,47,-99.99,,,0.00,weatherlink.com 1.10,2013-05-07 10:16:00,
2013-05-07 03:24:00,52.3,33.0,30.02,WSW,240,1.0,-999.0,49,-99.99,,,0.00,weatherlink.com 1.10,2013-05-07 10:24:00,
2013-05-07 03:39:00,52.0,34.0,30.02,SSW,195,3.0,-999.0,50,-99.99,,,0.00,weatherlink.com 1.10,2013-05-07 10:39:00,
2013-05-07 03:54:00,51.8,34.0,30.02,WSW,242,3.0,-999.0,51,-99.99,,,0.00,weatherlink.com 1.10,2013-05-07 10:54:00,
2013-05-07 04:16:00,51.5,34.0,30.02,SSE,162,0.0,-999.0,52,-99.99,,,0.00,weatherlink.com 1.10,2013-05-07 11:16:00,
2013-05-07 04:24:00,51.5,35.0,30.02,West,268,1.0,-999.0,53,-99.99,,,0.00,weatherlink.com 1.10,2013-05-07 11:24:00,
2013-05-07 04:39:00,51.4,35.0,30.02,SSW,198,0.0,-999.0,53,-99.99,,,0.00,weatherlink.com 1.10,2013-05-07 11:39:00,
2013-05-07 04:54:00,51.1,35.0,30.03,SW,221,0.0,-999.0,54,-99.99,,,0.00,weatherlink.com 1.10,2013-05-07 11:54:00,
2013-05-07 05:16:00,50.9,35.0,30.03,West,269,0.0,-999.0,55,-99.99,,,0.00,weatherlink.com 1.10,2013-05-07 12:16:00,
2013-05-07 05:24:00,50.8,34.0,30.03,West,279,0.0,-999.0,54,-99.99,,,0.00,weatherlink.com 1.10,2013-05-07 12:24:00,
2013-05-07 05:39:00,50.6,35.0,30.03,West,259,0.0,-999.0,55,-99.99,,,0.00,weatherlink.com 1.10,2013-05-07 12:39:00,
2013-05-07 05:54:00,50.7,35.0,30.04,SSW,201,2.0,-999.0,56,-99.99,,,0.00,weatherlink.com 1.10,2013-05-07 12:54:00,
2013-05-07 06:16:00,50.9,35.0,30.04,WSW,250,2.0,-999.0,56,-99.99,,,0.00,weatherlink.com 1.10,2013-05-07 13:16:00,
2013-05-07 06:24:00,51.7,36.0,30.05,WSW,254,0.0,-999.0,56,-99.99,,,0.00,weatherlink.com 1.10,2013-05-07 13:24:00,
2013-05-07 06:39:00,54.2,37.0,30.05,South,170,2.0,-999.0,52,-99.99,,,0.00,weatherlink.com 1.10,2013-05-07 13:39:00,
2013-05-07 06:54:00,55.9,37.0,30.05,East,100,0.0,-999.0,50,-99.99,,,0.00,weatherlink.com 1.10,2013-05-07 13:54:00,
2013-05-07 07:16:00,56.8,38.0,30.05,SSE,150,5.0,-999.0,49,-99.99,,,0.00,weatherlink.com 1.10,2013-05-07 14:16:00,
2013-05-07 07:26:00,57.9,38.0,30.06,SSE,152,1.0,-999.0,48,-99.99,,,0.00,weatherlink.com 1.10,2013-05-07 14:26:00,
2013-05-07 07:39:00,58.2,38.0,30.06,SE,124,5.0,-999.0,48,-99.99,,,0.00,weatherlink.com 1.10,2013-05-07 14:39:00,
2013-05-07 07:54:00,58.9,38.0,30.05,SE,128,0.0,-999.0,46,-99.99,,,0.00,weatherlink.com 1.10,2013-05-07 14:54:00,
2013-05-07 08:16:00,59.6,39.0,30.06,SE,128,0.0,-999.0,47,-99.99,,,0.00,weatherlink.com 1.10,2013-05-07 15:16:00,
2013-05-07 08:24:00,61.0,39.0,30.06,SSE,165,5.0,-999.0,44,-99.99,,,0.00,weatherlink.com 1.10,2013-05-07 15:24:00,
2013-05-07 08:39:00,61.8,39.0,30.06,SE,145,5.0,-999.0,44,-99.99,,,0.00,weatherlink.com 1.10,2013-05-07 15:39:00,
2013-05-07 08:54:00,61.5,37.0,30.05,SSE,155,0.0,-999.0,41,-99.99,,,0.00,weatherlink.com 1.10,2013-05-07 15:54:00,
2013-05-07 09:16:00,62.0,37.0,30.05,SE,146,0.0,-999.0,40,-99.99,,,0.00,weatherlink.com 1.10,2013-05-07 16:16:00,
2013-05-07 09:24:00,63.0,38.0,30.05,SE,137,0.0,-999.0,40,-99.99,,,0.00,weatherlink.com 1.10,2013-05-07 16:24:00,
2013-05-07 09:39:00,63.7,36.0,30.06,ESE,111,0.0,-999.0,36,-99.99,,,0.00,weatherlink.com 1.10,2013-05-07 16:39:00,
2013-05-07 09:54:00,64.5,37.0,30.05,South,178,0.0,-999.0,36,-99.99,,,0.00,weatherlink.com 1.10,2013-05-07 16:54:00,
2013-05-07 10:16:00,65.0,38.0,30.05,ESE,123,7.0,-999.0,37,-99.99,,,0.00,weatherlink.com 1.10,2013-05-07 17:16:00,
2013-05-07 10:24:00,65.8,37.0,30.05,West,272,0.0,-999.0,34,-99.99,,,0.00,weatherlink.com 1.10,2013-05-07 17:24:00,
2013-05-07 10:39:00,65.7,36.0,30.05,SE,127,4.0,-999.0,33,-99.99,,,0.00,weatherlink.com 1.10,2013-05-07 17:39:00,
2013-05-07 10:54:00,66.3,36.0,30.04,SE,144,1.0,-999.0,33,-99.99,,,0.00,weatherlink.com 1.10,2013-05-07 17:54:00,
2013-05-07 11:16:00,67.4,36.0,30.04,SE,135,7.0,-999.0,32,-99.99,,,0.00,weatherlink.com 1.10,2013-05-07 18:16:00,
2013-05-07 11:24:00,67.5,36.0,30.03,SSE,159,5.0,-999.0,31,-99.99,,,0.00,weatherlink.com 1.10,2013-05-07 18:24:00,
2013-05-07 11:39:00,67.6,31.0,30.03,ESE,123,11.0,-999.0,26,-99.99,,,0.00,weatherlink.com 1.10,2013-05-07 18:39:00,
2013-05-07 11:54:00,68.3,31.0,30.03,NE,44,3.0,-999.0,25,-99.99,,,0.00,weatherlink.com 1.10,2013-05-07 18:54:00,
2013-05-07 12:17:00,68.9,33.0,30.02,SE,141,4.0,-999.0,26,-99.99,,,0.00,weatherlink.com 1.10,2013-05-07 19:17:00,
2013-05-07 12:25:00,70.5,33.0,30.02,ENE,63,0.0,-999.0,25,-99.99,,,0.00,weatherlink.com 1.10,2013-05-07 19:25:00,
2013-05-07 12:40:00,70.0,33.0,30.01,West,278,0.0,-999.0,25,-99.99,,,0.00,weatherlink.com 1.10,2013-05-07 19:40:00,
2013-05-07 12:55:00,70.6,32.0,30.00,West,260,4.0,-999.0,24,-99.99,,,0.00,weatherlink.com 1.10,2013-05-07 19:55:00,
2013-05-07 13:16:00,71.6,30.0,30.00,WNW,288,0.0,-999.0,21,-99.99,,,0.00,weatherlink.com 1.10,2013-05-07 20:16:00,
2013-05-07 13:25:00,71.6,31.0,30.00,South,189,0.0,-999.0,22,-99.99,,,0.00,weatherlink.com 1.10,2013-05-07 20:25:00,
2013-05-07 13:40:00,71.3,30.0,30.00,West,259,0.0,-999.0,22,-99.99,,,0.00,weatherlink.com 1.10,2013-05-07 20:40:00,
2013-05-07 13:55:00,71.0,30.0,30.00,West,263,1.0,-999.0,22,-99.99,,,0.00,weatherlink.com 1.10,2013-05-07 20:55:00,
2013-05-07 14:16:00,70.6,31.0,30.00,North,5,0.0,-999.0,23,-99.99,,,0.00,weatherlink.com 1.10,2013-05-07 21:16:00,
2013-05-07 14:25:00,71.4,31.0,29.99,WSW,242,2.0,-999.0,22,-99.99,,,0.00,weatherlink.com 1.10,2013-05-07 21:25:00,
2013-05-07 14:40:00,71.3,32.0,29.99,SE,143,4.0,-999.0,23,-99.99,,,0.00,weatherlink.com 1.10,2013-05-07 21:40:00,
2013-05-07 14:55:00,70.9,31.0,29.97,SE,135,1.0,-999.0,23,-99.99,,,0.00,weatherlink.com 1.10,2013-05-07 21:55:00,
2013-05-07 15:17:00,70.8,31.0,29.97,WNW,295,2.0,-999.0,23,-99.99,,,0.00,weatherlink.com 1.10,2013-05-07 22:17:00,
2013-05-07 15:25:00,69.6,30.0,29.97,West,273,5.0,-999.0,23,-99.99,,,0.00,weatherlink.com 1.10,2013-05-07 22:25:00,
2013-05-07 15:40:00,68.7,28.0,29.97,SSW,207,2.0,-999.0,22,-99.99,,,0.00,weatherlink.com 1.10,2013-05-07 22:40:00,
2013-05-07 15:55:00,68.2,27.0,29.97,West,273,9.0,-999.0,21,-99.99,,,0.00,weatherlink.com 1.10,2013-05-07 22:55:00,
2013-05-07 16:17:00,67.8,27.0,29.97,North,5,0.0,-999.0,22,-99.99,,,0.00,weatherlink.com 1.10,2013-05-07 23:17:00,
2013-05-07 16:27:00,67.1,28.0,29.97,West,262,1.0,-999.0,23,-99.99,,,0.00,weatherlink.com 1.10,2013-05-07 23:27:00,
2013-05-07 16:40:00,67.3,27.0,29.97,SSW,205,3.0,-999.0,22,-99.99,,,0.00,weatherlink.com 1.10,2013-05-07 23:40:00,
2013-05-07 16:55:00,66.3,26.0,29.98,SSE,161,2.0,-999.0,22,-99.99,,,0.00,weatherlink.com 1.10,2013-05-07 23:55:00,
2013-05-07 17:17:00,65.6,26.0,29.98,WSW,250,0.0,-999.0,22,-99.99,,,0.00,weatherlink.com 1.10,2013-05-08 00:17:00,
2013-05-07 17:25:00,65.5,27.0,29.98,West,271,5.0,-999.0,23,-99.99,,,0.00,weatherlink.com 1.10,2013-05-08 00:25:00,
2013-05-07 17:40:00,66.4,26.0,29.98,WNW,291,1.0,-999.0,22,-99.99,,,0.00,weatherlink.com 1.10,2013-05-08 00:40:00,
2013-05-07 17:55:00,66.9,27.0,29.97,West,269,0.0,-999.0,22,-99.99,,,0.00,weatherlink.com 1.10,2013-05-08 00:55:00,
2013-05-07 18:17:00,66.7,25.0,29.97,WSW,258,0.0,-999.0,21,-99.99,,,0.00,weatherlink.com 1.10,2013-05-08 01:17:00,
2013-05-07 18:25:00,65.3,26.0,29.98,WSW,246,3.0,-999.0,23,-99.99,,,0.00,weatherlink.com 1.10,2013-05-08 01:25:00,
2013-05-07 18:40:00,64.0,26.0,29.98,WSW,248,1.0,-999.0,24,-99.99,,,0.00,weatherlink.com 1.10,2013-05-08 01:40:00,
2013-05-07 18:55:00,63.2,26.0,29.99,West,267,3.0,-999.0,24,-99.99,,,0.00,weatherlink.com 1.10,2013-05-08 01:55:00,
2013-05-07 19:11:00,62.6,26.0,29.99,WSW,255,4.0,-999.0,25,-99.99,,,0.00,weatherlink.com 1.10,2013-05-08 02:11:00,
2013-05-07 19:25:00,62.0,26.0,29.99,West,265,1.0,-999.0,25,-99.99,,,0.00,weatherlink.com 1.10,2013-05-08 02:25:00,
2013-05-07 19:40:00,61.7,25.0,30.00,West,265,0.0,-999.0,25,-99.99,,,0.00,weatherlink.com 1.10,2013-05-08 02:40:00,
2013-05-07 19:55:00,61.4,26.0,30.00,WSW,256,2.0,-999.0,26,-99.99,,,0.00,weatherlink.com 1.10,2013-05-08 02:55:00,
2013-05-07 20:17:00,60.9,26.0,30.00,West,262,0.0,-999.0,26,-99.99,,,0.00,weatherlink.com 1.10,2013-05-08 03:17:00,
2013-05-07 20:25:00,60.4,26.0,30.01,West,275,5.0,-999.0,27,-99.99,,,0.00,weatherlink.com 1.10,2013-05-08 03:25:00,
2013-05-07 20:40:00,60.2,26.0,30.00,West,275,0.0,-999.0,27,-99.99,,,0.00,weatherlink.com 1.10,2013-05-08 03:40:00,
2013-05-07 20:55:00,59.8,26.0,30.00,WSW,244,0.0,-999.0,27,-99.99,,,0.00,weatherlink.com 1.10,2013-05-08 03:55:00,
2013-05-07 21:17:00,59.5,26.0,30.01,WSW,248,1.0,-999.0,28,-99.99,,,0.00,weatherlink.com 1.10,2013-05-08 04:17:00,
2013-05-07 21:25:00,59.2,27.0,30.01,South,180,3.0,-999.0,29,-99.99,,,0.00,weatherlink.com 1.10,2013-05-08 04:25:00,
2013-05-07 21:40:00,58.9,27.0,30.02,SW,234,1.0,-999.0,30,-99.99,,,0.00,weatherlink.com 1.10,2013-05-08 04:40:00,
2013-05-07 21:55:00,58.6,27.0,30.03,West,273,5.0,-999.0,30,-99.99,,,0.00,weatherlink.com 1.10,2013-05-08 04:55:00,
2013-05-07 22:17:00,58.3,28.0,30.03,SW,221,2.0,-999.0,31,-99.99,,,0.00,weatherlink.com 1.10,2013-05-08 05:17:00,
2013-05-07 22:25:00,57.9,27.0,30.03,West,271,1.0,-999.0,31,-99.99,,,0.00,weatherlink.com 1.10,2013-05-08 05:25:00,
2013-05-07 22:40:00,57.5,27.0,30.02,SW,221,2.0,-999.0,31,-99.99,,,0.00,weatherlink.com 1.10,2013-05-08 05:40:00,
2013-05-07 22:55:00,57.2,27.0,30.03,SSE,167,4.0,-999.0,31,-99.99,,,0.00,weatherlink.com 1.10,2013-05-08 05:55:00,
2013-05-07 23:17:00,56.7,27.0,30.02,SW,226,1.0,-999.0,32,-99.99,,,0.00,weatherlink.com 1.10,2013-05-08 06:17:00,
2013-05-07 23:27:00,56.2,27.0,30.02,West,276,2.0,-999.0,33,-99.99,,,0.00,weatherlink.com 1.10,2013-05-08 06:27:00,
2013-05-07 23:40:00,55.9,28.0,30.03,SW,235,0.0,-999.0,34,-99.99,,,0.00,weatherlink.com 1.10,2013-05-08 06:40:00,
2013-05-07 23:55:00,55.7,28.0,30.03,North,11,0.0,-999.0,34,-99.99,,,0.00,weatherlink.com 1.10,2013-05-08 06:55:00,